Albatross — V7FX9 — position and weather

sailwx.info

Track history (hours):
 
Tides and Currents Weather Stations Pressure Air Temp Water Temp Dewpoint Dewpoint Depression Visibility Wind Speed Wind Dir Waves Ship Positions

Albatross

Last reported at 2018-Jun-12 08:36 UTC. Time now 2018-Jun-25 08:20 UTC.
Position N 58°18' E 004°14'.
Warning: this ship's position is 12 days out of date.

; draft 10.1 m.

Type: Ship. MMSI: 538002042.

Date/timePositionNaut miles runAvg speedWind from/ knotsBaromVisibWave heightAir tempDewpointWater temp
2018-Jun-12 08:36N 58°18' E 004°14'210.4
2018-Jun-12 08:25N 58°17' E 004°17'510.9
2018-Jun-12 08:00N 58°14' E 004°24'710.9
2018-Jun-12 07:23N 58°09' E 004°33'611.2
2018-Jun-12 06:54N 58°06' E 004°41'811.0
2018-Jun-12 06:09N 58°00' E 004°53'411.2
2018-Jun-12 05:47N 57°58' E 004°58'1011.3
2018-Jun-12 04:56N 57°51' E 005°12'17810.1
2018-Jun-11 11:12N 57°47' E 010°46'3 9.6
2018-Jun-11 10:56N 57°45' E 010°46'5 1.0
2018-Jun-11 06:27N 57°44' E 010°55'4 8.4
2018-Jun-11 06:00N 57°41' E 010°59'510.2
2018-Jun-11 05:30N 57°38' E 011°07'612.5
2018-Jun-11 05:00N 57°33' E 011°15'612.7
2018-Jun-11 04:30N 57°29' E 011°24'612.6
2018-Jun-11 04:00N 57°24' E 011°30'12311.1
2018-Jun-10 16:53N 55°21' E 011°02'8 9.6
2018-Jun-10 16:02N 55°14' E 011°06'010.3
2018-Jun-10 16:00N 55°13' E 011°06'510.3
2018-Jun-10 15:30N 55°08' E 011°03'510.6
2018-Jun-10 15:00N 55°03' E 011°02'5 9.3
2018-Jun-10 14:30N 54°59' E 011°00'1110.9
2018-Jun-10 13:30N 54°49' E 010°52'611.7
2018-Jun-10 13:00N 54°43' E 010°53'612.2
2018-Jun-10 12:30N 54°39' E 011°01'612.9
2018-Jun-10 12:00N 54°36' E 011°11'713.0
2018-Jun-10 11:30N 54°33' E 011°21'713.3
2018-Jun-10 11:00N 54°30' E 011°31'713.1
2018-Jun-10 10:30N 54°27' E 011°41'612.8
2018-Jun-10 10:00N 54°26' E 011°52'713.3
2018-Jun-10 09:30N 54°26' E 012°04'611.4
2018-Jun-10 09:00N 54°29' E 012°12'713.7
2018-Jun-10 08:31N 54°35' E 012°16'713.4
2018-Jun-10 08:01N 54°40' E 012°25'713.6
2018-Jun-10 07:31N 54°43' E 012°35'713.6
2018-Jun-10 07:01N 54°47' E 012°44'713.3
2018-Jun-10 06:31N 54°50' E 012°55'713.6
2018-Jun-10 06:00N 54°52' E 013°06'713.8
2018-Jun-10 05:30N 54°54' E 013°18'612.6
2018-Jun-10 05:00N 54°53' E 013°29'713.9
2018-Jun-10 04:30N 54°49' E 013°39'713.8
2018-Jun-10 04:00N 54°45' E 013°49'713.8
2018-Jun-10 03:29N 54°42' E 013°60'713.6
2018-Jun-10 02:59N 54°40' E 014°11'713.8
2018-Jun-10 02:30N 54°38' E 014°22'713.5
2018-Jun-10 01:59N 54°39' E 014°34'613.6
2018-Jun-10 01:30N 54°40' E 014°45'713.5
2018-Jun-10 01:00N 54°42' E 014°56'713.4
2018-Jun-10 00:30N 54°44' E 015°08'713.3
2018-Jun-10 00:00N 54°47' E 015°18'713.5
2018-Jun-09 23:30N 54°51' E 015°28'713.7
2018-Jun-09 23:00N 54°55' E 015°37'713.8
2018-Jun-09 22:30N 54°59' E 015°47'713.9
2018-Jun-09 22:00N 55°02' E 015°57'714.2
2018-Jun-09 21:30N 55°06' E 016°07'713.9
2018-Jun-09 21:00N 55°10' E 016°17'713.8
2018-Jun-09 20:30N 55°14' E 016°27'713.9
2018-Jun-09 20:00N 55°17' E 016°39'714.1
2018-Jun-09 19:30N 55°19' E 016°51'714.0
2018-Jun-09 19:00N 55°20' E 017°03'714.0
2018-Jun-09 18:30N 55°22' E 017°15'714.0
2018-Jun-09 18:00N 55°24' E 017°27'713.5
2018-Jun-09 17:31N 55°26' E 017°37'714.0
2018-Jun-09 17:00N 55°32' E 017°46'713.9
2018-Jun-09 16:30N 55°37' E 017°55'713.9
2018-Jun-09 16:00N 55°41' E 018°03'713.9
2018-Jun-09 15:30N 55°46' E 018°12'1413.9
2018-Jun-09 14:30N 55°56' E 018°29'713.9
2018-Jun-09 14:01N 56°02' E 018°37'713.9
2018-Jun-09 13:30N 56°07' E 018°46'714.0
2018-Jun-09 13:00N 56°12' E 018°55'714.1
2018-Jun-09 12:30N 56°17' E 019°04'714.0
2018-Jun-09 12:00N 56°22' E 019°13'713.9
2018-Jun-09 11:29N 56°27' E 019°22'713.6
2018-Jun-09 11:00N 56°32' E 019°30'713.8
2018-Jun-09 10:30N 56°37' E 019°38'713.5
2018-Jun-09 10:00N 56°42' E 019°46'613.2
2018-Jun-09 09:31N 56°46' E 019°55'171 8.1
2018-Jun-08 12:24N 59°38' E 019°57'613.8
2018-Jun-08 11:59N 59°42' E 019°49'713.7
2018-Jun-08 11:30N 59°47' E 019°41'713.9
2018-Jun-08 11:00N 59°52' E 019°33'713.7
2018-Jun-08 10:30N 59°58' E 019°24'713.7
2018-Jun-08 10:00N 60°03' E 019°15'713.6
2018-Jun-08 09:30N 60°08' E 019°06'613.0
2018-Jun-08 09:00N 60°14' E 018°60'713.8
2018-Jun-08 08:31N 60°20' E 019°00'  
2018-Jun-05 05:18N 60°25' E 019°03'3 5.3
2018-Jun-05 04:47N 60°22' E 019°02'2 6.8
2018-Jun-05 04:30N 60°20' E 019°02'3 6.8
2018-Jun-05 04:00N 60°17' E 019°02'4 8.3
2018-Jun-05 03:30N 60°13' E 019°04'5 9.4
2018-Jun-05 03:00N 60°09' E 019°09'611.2
2018-Jun-05 02:30N 60°04' E 019°16'611.9
2018-Jun-05 02:00N 59°60' E 019°23'611.8
2018-Jun-05 01:30N 59°55' E 019°30'611.6
2018-Jun-05 01:00N 59°51' E 019°38'611.4
2018-Jun-05 00:29N 59°47' E 019°46'611.7
2018-Jun-04 23:59N 59°42' E 019°54'23512.9
2018-Jun-04 05:45N 56°08' E 016°54'414.7
2018-Jun-04 05:30N 56°05' E 016°50'2614.7
2018-Jun-04 03:45N 55°52' E 016°10'514.6
2018-Jun-04 03:26N 55°50' E 016°03'814.4
2018-Jun-04 02:52N 55°46' E 015°50'713.3
2018-Jun-04 02:19N 55°40' E 015°42'414.3
2018-Jun-04 02:00N 55°38' E 015°35'714.5
2018-Jun-04 01:30N 55°36' E 015°23'714.5
2018-Jun-04 01:00N 55°33' E 015°11'714.4
2018-Jun-04 00:30N 55°30' E 014°59'714.3
2018-Jun-04 00:00N 55°28' E 014°47'714.3
2018-Jun-03 23:30N 55°23' E 014°39'714.5
2018-Jun-03 23:00N 55°17' E 014°31'714.4
2018-Jun-03 22:31N 55°11' E 014°23'714.5
2018-Jun-03 22:01N 55°06' E 014°15'1014.1
2018-Jun-03 21:17N 54°59' E 014°01'1115.2
2018-Jun-03 20:33N 54°55' E 013°43'1014.7
2018-Jun-03 19:53N 54°52' E 013°27'614.3
2018-Jun-03 19:29N 54°51' E 013°17'1114.4
2018-Jun-03 18:42N 54°48' E 012°58'514.6
2018-Jun-03 18:20N 54°46' E 012°50'514.5
2018-Jun-03 18:00N 54°44' E 012°42'714.3
2018-Jun-03 17:29N 54°40' E 012°31'714.5
2018-Jun-03 16:59N 54°36' E 012°21'714.2
2018-Jun-03 16:31N 54°30' E 012°16'814.6
2018-Jun-03 15:57N 54°22' E 012°10'614.6
2018-Jun-03 15:30N 54°22' E 011°59'814.2
2018-Jun-03 14:56N 54°24' E 011°46'714.6
2018-Jun-03 14:26N 54°28' E 011°34'614.9
2018-Jun-03 14:00N 54°31' E 011°25'714.9
2018-Jun-03 13:30N 54°34' E 011°13'714.7
2018-Jun-03 13:01N 54°38' E 011°02'714.3
2018-Jun-03 12:31N 54°42' E 010°52'714.6
2018-Jun-03 12:01N 54°49' E 010°51'714.5
2018-Jun-03 11:31N 54°56' E 010°55'713.6
2018-Jun-03 11:01N 55°02' E 011°01'714.6
2018-Jun-03 10:31N 55°09' E 011°02'713.2
2018-Jun-03 10:00N 55°16' E 011°04'2612.9
2018-Jun-03 08:00N 55°39' E 010°46'1013.2
2018-Jun-03 07:12N 55°50' E 010°49'312.7
2018-Jun-03 07:00N 55°52' E 010°51'612.5
2018-Jun-03 06:30N 55°56' E 010°59'5 9.3
2018-Jun-03 06:00N 55°59' E 010°52'713.4
2018-Jun-03 05:30N 56°02' E 010°42'713.5
2018-Jun-03 05:00N 56°05' E 010°31'713.5
2018-Jun-03 04:30N 56°08' E 010°20'4 7.6
2018-Jun-03 04:00N 56°09' E 010°13'0 0.0
2018-Jun-02 08:46N 56°09' E 010°13'  
Track history (hours):
 
Tides and Currents Weather Stations Pressure Air Temp Water Temp Dewpoint Dewpoint Depression Visibility Wind Speed Wind Dir Waves Ship Positions

Albatross

Last reported at 2018-Jun-12 08:36 UTC. Time now 2018-Jun-25 08:20 UTC.
Position N 58°18' E 004°14'.
Warning: this ship's position is 12 days out of date.

; draft 10.1 m.

Type: Ship. MMSI: 538002042.

Date/timePositionNaut miles runAvg speedWind from/ knotsBaromVisibWave heightAir tempDewpointWater temp
2018-Jun-12 08:36N 58°18' E 004°14'210.4
2018-Jun-12 08:25N 58°17' E 004°17'510.9
2018-Jun-12 08:00N 58°14' E 004°24'710.9
2018-Jun-12 07:23N 58°09' E 004°33'611.2
2018-Jun-12 06:54N 58°06' E 004°41'811.0
2018-Jun-12 06:09N 58°00' E 004°53'411.2
2018-Jun-12 05:47N 57°58' E 004°58'1011.3
2018-Jun-12 04:56N 57°51' E 005°12'17810.1
2018-Jun-11 11:12N 57°47' E 010°46'3 9.6
2018-Jun-11 10:56N 57°45' E 010°46'5 1.0
2018-Jun-11 06:27N 57°44' E 010°55'4 8.4
2018-Jun-11 06:00N 57°41' E 010°59'510.2
2018-Jun-11 05:30N 57°38' E 011°07'612.5
2018-Jun-11 05:00N 57°33' E 011°15'612.7
2018-Jun-11 04:30N 57°29' E 011°24'612.6
2018-Jun-11 04:00N 57°24' E 011°30'12311.1
2018-Jun-10 16:53N 55°21' E 011°02'8 9.6
2018-Jun-10 16:02N 55°14' E 011°06'010.3
2018-Jun-10 16:00N 55°13' E 011°06'510.3
2018-Jun-10 15:30N 55°08' E 011°03'510.6
2018-Jun-10 15:00N 55°03' E 011°02'5 9.3
2018-Jun-10 14:30N 54°59' E 011°00'1110.9
2018-Jun-10 13:30N 54°49' E 010°52'611.7
2018-Jun-10 13:00N 54°43' E 010°53'612.2
2018-Jun-10 12:30N 54°39' E 011°01'612.9
2018-Jun-10 12:00N 54°36' E 011°11'713.0
2018-Jun-10 11:30N 54°33' E 011°21'713.3
2018-Jun-10 11:00N 54°30' E 011°31'713.1
2018-Jun-10 10:30N 54°27' E 011°41'612.8
2018-Jun-10 10:00N 54°26' E 011°52'713.3
2018-Jun-10 09:30N 54°26' E 012°04'611.4
2018-Jun-10 09:00N 54°29' E 012°12'713.7
2018-Jun-10 08:31N 54°35' E 012°16'713.4
2018-Jun-10 08:01N 54°40' E 012°25'713.6
2018-Jun-10 07:31N 54°43' E 012°35'713.6
2018-Jun-10 07:01N 54°47' E 012°44'713.3
2018-Jun-10 06:31N 54°50' E 012°55'713.6
2018-Jun-10 06:00N 54°52' E 013°06'713.8
2018-Jun-10 05:30N 54°54' E 013°18'612.6
2018-Jun-10 05:00N 54°53' E 013°29'713.9
2018-Jun-10 04:30N 54°49' E 013°39'713.8
2018-Jun-10 04:00N 54°45' E 013°49'713.8
2018-Jun-10 03:29N 54°42' E 013°60'713.6
2018-Jun-10 02:59N 54°40' E 014°11'713.8
2018-Jun-10 02:30N 54°38' E 014°22'713.5
2018-Jun-10 01:59N 54°39' E 014°34'613.6
2018-Jun-10 01:30N 54°40' E 014°45'713.5
2018-Jun-10 01:00N 54°42' E 014°56'713.4
2018-Jun-10 00:30N 54°44' E 015°08'713.3
2018-Jun-10 00:00N 54°47' E 015°18'713.5
2018-Jun-09 23:30N 54°51' E 015°28'713.7
2018-Jun-09 23:00N 54°55' E 015°37'713.8
2018-Jun-09 22:30N 54°59' E 015°47'713.9
2018-Jun-09 22:00N 55°02' E 015°57'714.2
2018-Jun-09 21:30N 55°06' E 016°07'713.9
2018-Jun-09 21:00N 55°10' E 016°17'713.8
2018-Jun-09 20:30N 55°14' E 016°27'713.9
2018-Jun-09 20:00N 55°17' E 016°39'714.1
2018-Jun-09 19:30N 55°19' E 016°51'714.0
2018-Jun-09 19:00N 55°20' E 017°03'714.0
2018-Jun-09 18:30N 55°22' E 017°15'714.0
2018-Jun-09 18:00N 55°24' E 017°27'713.5
2018-Jun-09 17:31N 55°26' E 017°37'714.0
2018-Jun-09 17:00N 55°32' E 017°46'713.9
2018-Jun-09 16:30N 55°37' E 017°55'713.9
2018-Jun-09 16:00N 55°41' E 018°03'713.9
2018-Jun-09 15:30N 55°46' E 018°12'1413.9
2018-Jun-09 14:30N 55°56' E 018°29'713.9
2018-Jun-09 14:01N 56°02' E 018°37'713.9
2018-Jun-09 13:30N 56°07' E 018°46'714.0
2018-Jun-09 13:00N 56°12' E 018°55'714.1
2018-Jun-09 12:30N 56°17' E 019°04'714.0
2018-Jun-09 12:00N 56°22' E 019°13'713.9
2018-Jun-09 11:29N 56°27' E 019°22'713.6
2018-Jun-09 11:00N 56°32' E 019°30'713.8
2018-Jun-09 10:30N 56°37' E 019°38'713.5
2018-Jun-09 10:00N 56°42' E 019°46'613.2
2018-Jun-09 09:31N 56°46' E 019°55'171 8.1
2018-Jun-08 12:24N 59°38' E 019°57'613.8
2018-Jun-08 11:59N 59°42' E 019°49'713.7
2018-Jun-08 11:30N 59°47' E 019°41'713.9
2018-Jun-08 11:00N 59°52' E 019°33'713.7
2018-Jun-08 10:30N 59°58' E 019°24'713.7
2018-Jun-08 10:00N 60°03' E 019°15'713.6
2018-Jun-08 09:30N 60°08' E 019°06'613.0
2018-Jun-08 09:00N 60°14' E 018°60'713.8
2018-Jun-08 08:31N 60°20' E 019°00'  
2018-Jun-05 05:18N 60°25' E 019°03'3 5.3
2018-Jun-05 04:47N 60°22' E 019°02'2 6.8
2018-Jun-05 04:30N 60°20' E 019°02'3 6.8
2018-Jun-05 04:00N 60°17' E 019°02'4 8.3
2018-Jun-05 03:30N 60°13' E 019°04'5 9.4
2018-Jun-05 03:00N 60°09' E 019°09'611.2
2018-Jun-05 02:30N 60°04' E 019°16'611.9
2018-Jun-05 02:00N 59°60' E 019°23'611.8
2018-Jun-05 01:30N 59°55' E 019°30'611.6
2018-Jun-05 01:00N 59°51' E 019°38'611.4
2018-Jun-05 00:29N 59°47' E 019°46'611.7
2018-Jun-04 23:59N 59°42' E 019°54'23512.9
2018-Jun-04 05:45N 56°08' E 016°54'414.7
2018-Jun-04 05:30N 56°05' E 016°50'2614.7
2018-Jun-04 03:45N 55°52' E 016°10'514.6
2018-Jun-04 03:26N 55°50' E 016°03'814.4
2018-Jun-04 02:52N 55°46' E 015°50'713.3
2018-Jun-04 02:19N 55°40' E 015°42'414.3
2018-Jun-04 02:00N 55°38' E 015°35'714.5
2018-Jun-04 01:30N 55°36' E 015°23'714.5
2018-Jun-04 01:00N 55°33' E 015°11'714.4
2018-Jun-04 00:30N 55°30' E 014°59'714.3
2018-Jun-04 00:00N 55°28' E 014°47'714.3
2018-Jun-03 23:30N 55°23' E 014°39'714.5
2018-Jun-03 23:00N 55°17' E 014°31'714.4
2018-Jun-03 22:31N 55°11' E 014°23'714.5
2018-Jun-03 22:01N 55°06' E 014°15'1014.1
2018-Jun-03 21:17N 54°59' E 014°01'1115.2
2018-Jun-03 20:33N 54°55' E 013°43'1014.7
2018-Jun-03 19:53N 54°52' E 013°27'614.3
2018-Jun-03 19:29N 54°51' E 013°17'1114.4
2018-Jun-03 18:42N 54°48' E 012°58'514.6
2018-Jun-03 18:20N 54°46' E 012°50'514.5
2018-Jun-03 18:00N 54°44' E 012°42'714.3
2018-Jun-03 17:29N 54°40' E 012°31'714.5
2018-Jun-03 16:59N 54°36' E 012°21'714.2
2018-Jun-03 16:31N 54°30' E 012°16'814.6
2018-Jun-03 15:57N 54°22' E 012°10'614.6
2018-Jun-03 15:30N 54°22' E 011°59'814.2
2018-Jun-03 14:56N 54°24' E 011°46'714.6
2018-Jun-03 14:26N 54°28' E 011°34'614.9
2018-Jun-03 14:00N 54°31' E 011°25'714.9
2018-Jun-03 13:30N 54°34' E 011°13'714.7
2018-Jun-03 13:01N 54°38' E 011°02'714.3
2018-Jun-03 12:31N 54°42' E 010°52'714.6
2018-Jun-03 12:01N 54°49' E 010°51'714.5
2018-Jun-03 11:31N 54°56' E 010°55'713.6
2018-Jun-03 11:01N 55°02' E 011°01'714.6
2018-Jun-03 10:31N 55°09' E 011°02'713.2
2018-Jun-03 10:00N 55°16' E 011°04'2612.9
2018-Jun-03 08:00N 55°39' E 010°46'1013.2
2018-Jun-03 07:12N 55°50' E 010°49'312.7
2018-Jun-03 07:00N 55°52' E 010°51'612.5
2018-Jun-03 06:30N 55°56' E 010°59'5 9.3
2018-Jun-03 06:00N 55°59' E 010°52'713.4
2018-Jun-03 05:30N 56°02' E 010°42'713.5
2018-Jun-03 05:00N 56°05' E 010°31'713.5
2018-Jun-03 04:30N 56°08' E 010°20'4 7.6
2018-Jun-03 04:00N 56°09' E 010°13'0 0.0
2018-Jun-02 08:46N 56°09' E 010°13'  

Dump ship's entire track history